Home   Weather   Karaganda   Past weeks
Flag for Kazakhstan

Past Weather in Karaganda, Kazakhstan — Yesterday and Last 2 Weeks

Currently: 3 °F. Sunny. (Weather station: Karaganda, Kazakhstan). See more current weather

Past Weather in Karaganda — Graph

°F

Karaganda Temperature Yesterday

Maximum temperature yesterday: 18 °F (at 2:30 pm)
Minimum temperature yesterday: -2 °F (at 11:00 pm)
Average temperature yesterday: 8 °F

High & Low Weather Summary for the Past Weeks

 TemperatureHumidityPressure
High18 °F (Jan 28, 2:30 pm)92% (Jan 21, 11:00 pm)30.80 "Hg (Jan 21, 11:00 pm)
Low-18 °F (Jan 25, 4:30 am)51% (Jan 17, 1:00 pm)30.12 "Hg (Jan 29, 5:30 am)
Average3 °F75%30.57 "Hg
* Reported Jan 14 10:00 am — Jan 29 10:00 am, Karaganda. Weather by CustomWeather, © 2023

Note: Actual official high and low records may vary slightly from our data, if they occured in-between our weather recording intervals... More about our weather records

Karaganda Weather History for the Previous 24 Hours

Scroll right to see more
 ConditionsComfort  
Time TempWeatherWind HumidityBarometerVisibility
10:00 am
Sun, Jan 29
5 °FSunny.10 mph66%30.15 "Hg10 mi
9:30 am1 °FClear.6 mph65%30.15 "Hg10 mi
9:00 am-9 °FClear.3 mph77%30.15 "Hg10 mi
8:30 am-11 °FClear.No wind76%30.15 "Hg10 mi
7:30 am-11 °FClear.3 mph76%30.15 "Hg10 mi
7:00 am-11 °FClear.3 mph76%30.15 "Hg10 mi
5:30 am-9 °FClear.3 mph84%30.12 "Hg10 mi
5:00 am-11 °FPassing clouds.3 mph76%30.15 "HgN/A
4:30 am-9 °FClear.8 mph70%30.15 "Hg10 mi
4:00 am-9 °FClear.1 mph77%30.15 "Hg10 mi
3:30 am-6 °FPassing clouds.3 mph84%30.15 "HgN/A
3:00 am-9 °FPassing clouds.3 mph77%30.15 "HgN/A
2:30 am-6 °FPassing clouds.3 mph70%30.15 "HgN/A
2:00 am1 °FClear.3 mph71%30.15 "Hg10 mi
1:30 am3 °FPassing clouds.6 mph66%30.15 "HgN/A
1:00 am3 °FPassing clouds.6 mph66%30.15 "HgN/A
12:00 am0 °FClear.6 mph71%30.18 "Hg10 mi
11:30 pm
Sat, Jan 28
-2 °FClear.No wind77%30.18 "Hg10 mi
11:00 pm-2 °FClear.1 mph71%30.18 "Hg10 mi
10:00 pm5 °FClear.6 mph66%30.18 "Hg10 mi
9:30 pm3 °FClear.8 mph72%30.21 "Hg10 mi
9:00 pm3 °FClear.10 mph72%30.21 "Hg10 mi
8:30 pm0 °FClear.1 mph71%30.24 "Hg10 mi
8:00 pm5 °FClear.No wind66%30.24 "Hg10 mi
7:30 pm3 °FClear.3 mph72%30.24 "Hg10 mi
7:00 pm9 °FClear.3 mph66%30.24 "Hg10 mi
6:00 pm7 °FSunny.8 mph72%30.24 "Hg10 mi
5:30 pm10 °FSunny.6 mph67%30.24 "Hg10 mi
5:00 pm14 °FSunny.6 mph62%30.24 "Hg10 mi
4:30 pm14 °FSunny.8 mph67%30.27 "Hg10 mi
4:00 pm16 °FSunny.8 mph62%30.27 "Hg10 mi
3:30 pm18 °FSunny.6 mph58%30.27 "Hg10 mi
3:00 pm18 °FSunny.8 mph58%30.27 "Hg10 mi
2:30 pm18 °FSunny.10 mph58%30.30 "Hg10 mi
2:00 pm16 °FSunny.8 mph62%30.30 "Hg10 mi
1:30 pm14 °FSunny.3 mph62%30.33 "Hg10 mi
1:00 pm14 °FPassing clouds.3 mph67%30.33 "HgN/A
12:30 pm14 °FPassing clouds.6 mph62%30.33 "HgN/A
12:00 pm12 °FSunny.8 mph62%30.33 "Hg10 mi
11:30 am10 °FSunny.8 mph67%30.33 "Hg10 mi
11:00 am9 °FSunny.8 mph66%30.33 "Hg10 mi
Weather by CustomWeather, © 2023

See weather overview